createdAt,value
2023-04-28T00:00:56.495Z,0.00
2023-04-28T00:01:56.434Z,0.00
2023-04-28T00:02:56.508Z,0.00
2023-04-28T00:03:56.588Z,0.00
2023-04-28T00:04:56.615Z,0.00
2023-04-28T00:05:56.583Z,0.00
2023-04-28T00:06:56.389Z,0.00
2023-04-28T00:07:56.371Z,0.00
2023-04-28T00:08:56.364Z,0.00
2023-04-28T00:09:56.364Z,0.00
2023-04-28T00:10:56.345Z,0.00
2023-04-28T00:11:56.346Z,0.00
2023-04-28T00:12:56.312Z,0.00
2023-04-28T00:13:56.323Z,0.00
2023-04-28T00:14:56.400Z,0.00
2023-04-28T00:15:56.312Z,0.00
2023-04-28T00:16:56.378Z,0.00
2023-04-28T00:17:56.344Z,0.00
2023-04-28T00:18:56.268Z,0.00
2023-04-28T00:19:56.481Z,0.00
2023-04-28T00:20:56.233Z,0.00
2023-04-28T00:21:56.227Z,0.00
2023-04-28T00:22:56.230Z,0.00
2023-04-28T00:23:56.220Z,0.00
2023-04-28T00:24:56.198Z,0.00
2023-04-28T00:25:56.167Z,0.00
2023-04-28T00:26:56.187Z,0.00
2023-04-28T00:27:56.150Z,0.00
2023-04-28T00:28:56.143Z,0.00
2023-04-28T00:29:56.133Z,0.00
2023-04-28T00:30:56.121Z,0.00
2023-04-28T00:31:56.199Z,0.00
2023-04-28T00:32:56.139Z,0.00
2023-04-28T00:33:56.083Z,0.00
2023-04-28T00:34:56.080Z,0.00
2023-04-28T00:35:56.067Z,0.00
2023-04-28T00:36:56.067Z,0.00
2023-04-28T00:37:56.046Z,0.00
2023-04-28T00:38:56.031Z,0.00
2023-04-28T00:39:56.024Z,0.00
2023-04-28T00:40:56.034Z,0.00
2023-04-28T00:41:56.029Z,0.00
2023-04-28T00:42:55.993Z,0.00
2023-04-28T00:43:55.976Z,0.00
2023-04-28T00:44:55.966Z,0.00
2023-04-28T00:45:55.998Z,0.00
2023-04-28T00:46:55.966Z,0.00
2023-04-28T00:47:55.984Z,0.00
2023-04-28T00:48:55.923Z,0.00
2023-04-28T00:49:55.928Z,0.00
2023-04-28T00:50:55.907Z,0.00
2023-04-28T00:51:55.924Z,0.00
2023-04-28T00:52:55.882Z,0.00
2023-04-28T00:53:55.880Z,0.00
2023-04-28T00:54:55.864Z,0.00
2023-04-28T00:55:55.853Z,0.00
2023-04-28T00:56:55.853Z,0.00
2023-04-28T00:57:55.840Z,0.00
2023-04-28T00:58:55.817Z,0.00
2023-04-28T00:59:55.827Z,0.00
2023-04-28T01:00:55.815Z,0.00
2023-04-28T01:01:55.811Z,0.00
2023-04-28T01:02:55.957Z,0.00
2023-04-28T01:03:55.940Z,0.00
2023-04-28T01:04:55.764Z,0.00
2023-04-28T01:05:55.747Z,0.00
2023-04-28T01:06:55.757Z,0.00
2023-04-28T01:07:55.729Z,0.00
2023-04-28T01:08:55.712Z,0.00
2023-04-28T01:09:55.708Z,0.00
2023-04-28T01:10:55.691Z,0.00
2023-04-28T01:11:55.686Z,0.00
2023-04-28T01:12:55.677Z,0.00
2023-04-28T01:13:55.663Z,0.00
2023-04-28T01:14:55.667Z,0.00
2023-04-28T01:15:55.744Z,0.00
2023-04-28T01:16:55.735Z,0.00
2023-04-28T01:17:55.702Z,0.00
2023-04-28T01:18:55.610Z,0.00
2023-04-28T01:19:55.602Z,0.00
2023-04-28T01:20:55.587Z,0.00
2023-04-28T01:21:55.589Z,0.00
2023-04-28T01:22:55.582Z,0.00
2023-04-28T01:23:55.564Z,0.00
2023-04-28T01:24:55.557Z,0.00
2023-04-28T01:25:55.537Z,0.00
2023-04-28T01:26:55.525Z,0.00
2023-04-28T01:27:55.537Z,0.00
2023-04-28T01:28:55.503Z,0.00
2023-04-28T01:29:55.494Z,0.00
2023-04-28T01:30:55.482Z,0.00
2023-04-28T01:31:55.604Z,0.00
2023-04-28T01:32:55.542Z,0.00
2023-04-28T01:33:55.455Z,0.00
2023-04-28T01:34:55.441Z,0.00
2023-04-28T01:35:55.438Z,0.00
2023-04-28T01:36:55.415Z,0.00
2023-04-28T01:37:55.423Z,0.00
2023-04-28T01:38:55.395Z,0.00
2023-04-28T01:39:55.404Z,0.00
2023-04-28T01:40:55.373Z,0.00
2023-04-28T01:41:55.367Z,0.00
2023-04-28T01:42:55.378Z,0.00
2023-04-28T01:43:55.351Z,0.00
2023-04-28T01:44:55.331Z,0.00
2023-04-28T01:45:55.372Z,0.00
2023-04-28T01:46:55.308Z,0.00
2023-04-28T01:47:55.390Z,0.00
2023-04-28T01:48:55.298Z,0.00
2023-04-28T01:49:55.283Z,0.00
2023-04-28T01:50:55.272Z,0.00
2023-04-28T01:51:55.264Z,0.00
2023-04-28T01:52:55.258Z,0.00
2023-04-28T01:53:55.240Z,0.00
2023-04-28T01:54:55.224Z,0.00
2023-04-28T01:55:55.222Z,0.00
2023-04-28T01:56:55.203Z,0.00
2023-04-28T01:57:55.206Z,0.00
2023-04-28T01:58:55.181Z,0.00
2023-04-28T01:59:55.197Z,0.00
2023-04-28T02:00:55.159Z,0.00
2023-04-28T02:01:55.282Z,0.00
2023-04-28T02:02:55.232Z,0.00
2023-04-28T02:03:55.463Z,0.00
2023-04-28T02:04:55.227Z,0.00
2023-04-28T02:05:55.113Z,0.00
2023-04-28T02:06:55.112Z,0.00
2023-04-28T02:07:55.104Z,0.00
2023-04-28T02:08:55.077Z,0.00
2023-04-28T02:09:55.071Z,0.00
2023-04-28T02:10:55.059Z,0.00
2023-04-28T02:11:55.051Z,0.00
2023-04-28T02:12:55.050Z,0.00
2023-04-28T02:13:55.031Z,0.00
2023-04-28T02:14:55.012Z,0.00
2023-04-28T02:15:55.057Z,0.00
2023-04-28T02:16:54.991Z,0.00
2023-04-28T02:17:55.013Z,0.00
2023-04-28T02:18:54.994Z,0.00
2023-04-28T02:19:54.971Z,0.00
2023-04-28T02:20:54.955Z,0.00
2023-04-28T02:21:54.946Z,0.00
2023-04-28T02:22:54.946Z,0.00
2023-04-28T02:23:54.920Z,0.00
2023-04-28T02:24:54.906Z,0.00
2023-04-28T02:25:54.898Z,0.00
2023-04-28T02:26:54.882Z,0.00
2023-04-28T02:27:54.887Z,0.00
2023-04-28T02:28:54.863Z,0.00
2023-04-28T02:29:54.862Z,0.00
2023-04-28T02:30:54.856Z,0.00
2023-04-28T02:31:54.855Z,0.00
2023-04-28T02:32:54.849Z,0.00
2023-04-28T02:33:54.813Z,0.00
2023-04-28T02:34:54.792Z,0.00
2023-04-28T02:35:54.801Z,0.00
2023-04-28T02:36:54.770Z,0.00
2023-04-28T02:37:54.792Z,0.00
2023-04-28T02:38:54.775Z,0.00
2023-04-28T02:39:54.751Z,0.00
2023-04-28T02:40:54.728Z,0.00
2023-04-28T02:41:54.731Z,0.00
2023-04-28T02:42:54.710Z,0.00
2023-04-28T02:43:54.718Z,0.00
2023-04-28T02:44:54.692Z,0.00
2023-04-28T02:45:54.690Z,0.00
2023-04-28T02:46:54.677Z,0.00
2023-04-28T02:47:54.727Z,0.00
2023-04-28T02:48:54.678Z,0.00
2023-04-28T02:49:54.646Z,0.00
2023-04-28T02:50:54.634Z,0.00
2023-04-28T02:51:54.621Z,0.00
2023-04-28T02:52:54.606Z,0.00
2023-04-28T02:53:54.616Z,0.00
2023-04-28T02:54:54.659Z,0.00
2023-04-28T02:55:54.593Z,0.00
2023-04-28T02:56:54.563Z,0.00
2023-04-28T02:57:54.616Z,0.00
2023-04-28T02:58:54.565Z,0.00
2023-04-28T02:59:54.565Z,0.00
2023-04-28T03:00:54.587Z,0.00
2023-04-28T03:01:54.523Z,0.00
2023-04-28T03:02:54.625Z,0.00
2023-04-28T03:03:54.778Z,0.00
2023-04-28T03:04:54.525Z,0.00
2023-04-28T03:05:54.494Z,0.00
2023-04-28T03:06:54.484Z,0.00
2023-04-28T03:07:54.457Z,0.00
2023-04-28T03:08:54.458Z,0.00
2023-04-28T03:09:54.428Z,0.00
2023-04-28T03:10:54.414Z,0.00
2023-04-28T03:11:54.419Z,0.00
2023-04-28T03:12:54.392Z,0.00
2023-04-28T03:13:54.409Z,0.00
2023-04-28T03:14:54.380Z,0.00
2023-04-28T03:15:54.398Z,0.00
2023-04-28T03:16:54.361Z,0.00
2023-04-28T03:17:54.362Z,0.00
2023-04-28T03:18:54.350Z,0.00
2023-04-28T03:19:54.325Z,0.00
2023-04-28T03:20:54.313Z,0.00
2023-04-28T03:21:54.311Z,0.00
2023-04-28T03:22:54.282Z,0.00
2023-04-28T03:23:54.300Z,0.00
2023-04-28T03:24:54.267Z,0.00
2023-04-28T03:25:54.264Z,0.00
2023-04-28T03:26:54.241Z,0.00
2023-04-28T03:27:54.248Z,0.00
2023-04-28T03:28:54.236Z,0.00
2023-04-28T03:29:54.227Z,0.00
2023-04-28T03:30:54.212Z,0.00
2023-04-28T03:31:54.232Z,0.00
2023-04-28T03:32:54.191Z,0.00
2023-04-28T03:33:54.186Z,0.00
2023-04-28T03:34:54.162Z,0.00
2023-04-28T03:35:54.162Z,0.00
2023-04-28T03:36:54.149Z,0.00
2023-04-28T03:37:54.130Z,0.00
2023-04-28T03:38:54.131Z,0.00
2023-04-28T03:39:54.112Z,0.00
2023-04-28T03:40:54.102Z,0.00
2023-04-28T03:41:54.101Z,0.00
2023-04-28T03:42:54.074Z,0.00
2023-04-28T03:43:54.082Z,0.00
2023-04-28T03:44:54.053Z,0.00
2023-04-28T03:45:54.108Z,0.00
2023-04-28T03:46:54.038Z,0.00
2023-04-28T03:47:54.070Z,0.00
2023-04-28T03:48:54.028Z,0.00
2023-04-28T03:49:54.005Z,0.00
2023-04-28T03:50:53.988Z,0.00
2023-04-28T03:51:54.014Z,0.00
2023-04-28T03:52:53.981Z,0.00
2023-04-28T03:53:53.984Z,0.00
2023-04-28T03:54:53.955Z,0.00
2023-04-28T03:55:53.946Z,0.00
2023-04-28T03:56:53.933Z,0.00
2023-04-28T03:57:53.926Z,0.00
2023-04-28T03:58:53.922Z,0.00
2023-04-28T03:59:53.901Z,0.00
2023-04-28T04:00:53.889Z,0.00
2023-04-28T04:01:53.887Z,0.00
2023-04-28T04:02:54.008Z,0.00
2023-04-28T04:03:54.089Z,0.00
2023-04-28T04:04:54.038Z,0.00
2023-04-28T04:05:53.922Z,0.00
2023-04-28T04:06:53.829Z,0.00
2023-04-28T04:07:53.818Z,0.00
2023-04-28T04:08:53.821Z,0.00
2023-04-28T04:09:53.817Z,0.00
2023-04-28T04:10:53.780Z,0.00
2023-04-28T04:11:53.802Z,0.00
2023-04-28T04:12:53.717Z,1.00
2023-04-28T04:13:53.721Z,1.00
2023-04-28T04:14:53.691Z,1.00
2023-04-28T04:15:53.730Z,1.00
2023-04-28T04:16:53.668Z,1.00
2023-04-28T04:17:53.798Z,0.00
2023-04-28T04:18:53.717Z,0.00
2023-04-28T04:19:53.713Z,0.00
2023-04-28T04:20:53.673Z,0.00
2023-04-28T04:21:53.674Z,0.00
2023-04-28T04:22:53.666Z,0.00
2023-04-28T04:23:53.665Z,0.00
2023-04-28T04:24:53.631Z,0.00
2023-04-28T04:25:53.633Z,0.00
2023-04-28T04:26:53.621Z,0.00
2023-04-28T04:27:53.611Z,0.00
2023-04-28T04:28:53.668Z,0.00
2023-04-28T04:29:53.589Z,0.00
2023-04-28T04:30:53.620Z,0.00
2023-04-28T04:31:53.560Z,0.00
2023-04-28T04:32:53.598Z,0.00
2023-04-28T04:33:53.542Z,0.00
2023-04-28T04:34:53.530Z,0.00
2023-04-28T04:35:53.531Z,0.00
2023-04-28T04:36:53.508Z,0.00
2023-04-28T04:37:53.513Z,0.00
2023-04-28T04:38:54.684Z,0.00
2023-04-28T04:39:53.479Z,0.00
2023-04-28T04:40:53.484Z,0.00
2023-04-28T04:41:53.457Z,0.00
2023-04-28T04:42:53.424Z,2.00
2023-04-28T04:43:53.441Z,0.00
2023-04-28T04:44:53.420Z,0.00
2023-04-28T04:45:53.417Z,0.00
2023-04-28T04:46:53.499Z,0.00
2023-04-28T04:47:53.448Z,1.00
2023-04-28T04:48:53.437Z,0.00
2023-04-28T04:49:53.383Z,0.00
2023-04-28T04:50:53.316Z,4.00
2023-04-28T04:51:53.308Z,3.00
2023-04-28T04:52:53.295Z,2.00
2023-04-28T04:53:53.301Z,2.00
2023-04-28T04:54:53.263Z,1.00
2023-04-28T04:55:53.258Z,3.00
2023-04-28T04:56:53.245Z,3.00
2023-04-28T04:57:53.221Z,3.00
2023-04-28T04:58:53.235Z,3.00
2023-04-28T04:59:53.208Z,4.00
2023-04-28T05:00:53.200Z,4.00
2023-04-28T05:01:53.386Z,2.00
2023-04-28T05:02:53.362Z,2.00
2023-04-28T05:03:53.315Z,2.00
2023-04-28T05:04:54.595Z,1.00
2023-04-28T05:05:54.188Z,5.00
2023-04-28T05:06:53.147Z,2.00
2023-04-28T05:07:53.128Z,1.00
2023-04-28T05:08:53.134Z,1.00
2023-04-28T05:09:53.113Z,2.00
2023-04-28T05:10:53.112Z,2.00
2023-04-28T05:11:53.083Z,2.00
2023-04-28T05:12:53.074Z,2.00
2023-04-28T05:13:53.083Z,2.00
2023-04-28T05:14:53.060Z,2.00
2023-04-28T05:15:53.054Z,2.00
2023-04-28T05:16:53.074Z,4.00
2023-04-28T05:17:53.087Z,3.00
2023-04-28T05:18:53.028Z,2.00
2023-04-28T05:19:53.001Z,4.00
2023-04-28T05:20:53.011Z,5.00
2023-04-28T05:21:52.981Z,4.00
2023-04-28T05:22:52.972Z,6.00
2023-04-28T05:23:52.975Z,5.00
2023-04-28T05:24:52.953Z,4.00
2023-04-28T05:25:52.934Z,4.00
2023-04-28T05:26:52.929Z,4.00
2023-04-28T05:27:52.913Z,2.00
2023-04-28T05:28:52.923Z,2.00
2023-04-28T05:29:52.893Z,2.00
2023-04-28T05:30:52.914Z,2.00
2023-04-28T05:31:52.977Z,2.00
2023-04-28T05:32:52.899Z,1.00
2023-04-28T05:33:52.870Z,3.00
2023-04-28T05:34:52.849Z,5.00
2023-04-28T05:35:52.834Z,5.00
2023-04-28T05:36:52.844Z,5.00
2023-04-28T05:37:52.833Z,2.00
2023-04-28T05:38:52.902Z,2.00
2023-04-28T05:39:52.783Z,1.00
2023-04-28T05:40:52.782Z,1.00
2023-04-28T05:41:52.789Z,2.00
2023-04-28T05:42:52.761Z,1.00
2023-04-28T05:43:52.764Z,1.00
2023-04-28T05:44:52.754Z,2.00
2023-04-28T05:45:52.780Z,2.00
2023-04-28T05:46:52.854Z,2.00
2023-04-28T05:47:52.759Z,3.00
2023-04-28T05:48:52.712Z,3.00
2023-04-28T05:49:52.691Z,6.00
2023-04-28T05:50:52.684Z,6.00
2023-04-28T05:51:52.768Z,6.00
2023-04-28T05:52:52.657Z,6.00
2023-04-28T05:53:52.655Z,7.00
2023-04-28T05:54:52.630Z,9.00
2023-04-28T05:55:52.628Z,8.00
2023-04-28T05:56:52.612Z,6.00
2023-04-28T05:57:53.570Z,6.00
2023-04-28T05:58:52.601Z,5.00
2023-04-28T05:59:52.582Z,5.00
2023-04-28T06:00:52.571Z,5.00
2023-04-28T06:01:52.577Z,6.00
2023-04-28T06:02:52.665Z,4.00
2023-04-28T06:03:52.764Z,4.00
2023-04-28T06:04:52.853Z,4.00
2023-04-28T06:05:52.550Z,8.00
2023-04-28T06:06:52.508Z,6.00
2023-04-28T06:07:54.541Z,10.00
2023-04-28T06:08:52.503Z,13.00
2023-04-28T06:09:52.468Z,12.00
2023-04-28T06:10:52.466Z,15.00
2023-04-28T06:11:52.446Z,13.00
2023-04-28T06:12:52.441Z,13.00
2023-04-28T06:13:52.437Z,8.00
2023-04-28T06:14:52.430Z,7.00
2023-04-28T06:15:52.440Z,7.00
2023-04-28T06:16:52.397Z,11.00
2023-04-28T06:17:52.436Z,12.00
2023-04-28T06:18:52.375Z,13.00
2023-04-28T06:19:52.364Z,11.00
2023-04-28T06:20:52.374Z,11.00
2023-04-28T06:21:52.348Z,11.00
2023-04-28T06:22:52.362Z,12.00
2023-04-28T06:23:52.323Z,15.00
2023-04-28T06:24:52.317Z,14.00
2023-04-28T06:25:52.302Z,10.00
2023-04-28T06:26:52.288Z,10.00
2023-04-28T06:27:52.294Z,11.00
2023-04-28T06:28:52.275Z,10.00
2023-04-28T06:29:52.260Z,10.00
2023-04-28T06:30:52.307Z,10.00
2023-04-28T06:31:52.451Z,8.00
2023-04-28T06:32:52.351Z,6.00
2023-04-28T06:33:52.218Z,8.00
2023-04-28T06:34:52.245Z,12.00
2023-04-28T06:35:52.204Z,12.00
2023-04-28T06:36:52.205Z,10.00
2023-04-28T06:37:52.193Z,12.00
2023-04-28T06:38:52.168Z,13.00
2023-04-28T06:39:52.151Z,15.00
2023-04-28T06:40:52.148Z,18.00
2023-04-28T06:41:52.150Z,9.00
2023-04-28T06:42:52.148Z,7.00
2023-04-28T06:43:52.118Z,7.00
2023-04-28T06:44:52.121Z,11.00
2023-04-28T06:45:52.097Z,11.00
2023-04-28T06:46:52.143Z,12.00
2023-04-28T06:47:52.096Z,13.00
2023-04-28T06:48:52.070Z,11.00
2023-04-28T06:49:52.048Z,9.00
2023-04-28T06:50:52.086Z,12.00
2023-04-28T06:51:52.029Z,10.00
2023-04-28T06:52:52.029Z,10.00
2023-04-28T06:53:52.011Z,10.00
2023-04-28T06:54:52.130Z,10.00
2023-04-28T06:55:52.000Z,8.00
2023-04-28T06:56:51.983Z,7.00
2023-04-28T06:57:51.974Z,12.00
2023-04-28T06:58:51.977Z,14.00
2023-04-28T06:59:51.941Z,12.00
2023-04-28T07:00:52.029Z,9.00
2023-04-28T07:01:51.925Z,9.00
2023-04-28T07:02:52.085Z,9.00
2023-04-28T07:03:51.992Z,12.00
2023-04-28T07:04:51.927Z,10.00
2023-04-28T07:05:51.890Z,10.00
2023-04-28T07:06:51.878Z,7.00
2023-04-28T07:07:52.052Z,7.00
2023-04-28T07:08:51.863Z,11.00
2023-04-28T07:09:51.835Z,11.00
2023-04-28T07:10:51.825Z,10.00
2023-04-28T07:11:51.816Z,12.00
2023-04-28T07:12:51.835Z,9.00
2023-04-28T07:13:51.794Z,13.00
2023-04-28T07:14:51.802Z,12.00
2023-04-28T07:15:51.771Z,16.00
2023-04-28T07:16:51.799Z,21.00
2023-04-28T07:17:51.803Z,26.00
2023-04-28T07:18:51.757Z,22.00
2023-04-28T07:19:51.734Z,21.00
2023-04-28T07:20:51.729Z,17.00
2023-04-28T07:21:51.729Z,16.00
2023-04-28T07:22:51.723Z,16.00
2023-04-28T07:23:51.683Z,15.00
2023-04-28T07:24:51.690Z,13.00
2023-04-28T07:25:51.674Z,14.00
2023-04-28T07:26:51.673Z,15.00
2023-04-28T07:27:51.665Z,14.00
2023-04-28T07:28:51.646Z,17.00
2023-04-28T07:29:51.649Z,16.00
2023-04-28T07:30:51.642Z,16.00
2023-04-28T07:31:51.661Z,18.00
2023-04-28T07:32:51.634Z,19.00
2023-04-28T07:33:51.583Z,20.00
2023-04-28T07:34:51.595Z,18.00
2023-04-28T07:35:51.562Z,17.00
2023-04-28T07:36:51.553Z,13.00
2023-04-28T07:37:51.558Z,10.00
2023-04-28T07:38:51.571Z,12.00
2023-04-28T07:39:51.521Z,13.00
2023-04-28T07:41:51.502Z,15.00
2023-04-28T07:42:51.511Z,16.00
2023-04-28T07:43:51.484Z,17.00
2023-04-28T07:44:51.473Z,17.00
2023-04-28T07:45:51.555Z,17.00
2023-04-28T07:46:52.352Z,17.00
2023-04-28T07:47:51.475Z,18.00
2023-04-28T07:48:51.444Z,18.00
2023-04-28T07:49:51.414Z,18.00
2023-04-28T07:50:51.412Z,16.00
2023-04-28T07:51:51.386Z,17.00
2023-04-28T07:52:51.386Z,18.00
2023-04-28T07:53:51.384Z,18.00
2023-04-28T07:54:51.367Z,22.00
2023-04-28T07:55:51.355Z,23.00
2023-04-28T07:56:51.355Z,26.00
2023-04-28T07:57:51.344Z,22.00
2023-04-28T07:58:51.367Z,19.00
2023-04-28T07:59:51.317Z,19.00
2023-04-28T08:00:51.299Z,19.00
2023-04-28T08:01:51.286Z,18.00
2023-04-28T08:02:51.476Z,18.00
2023-04-28T08:03:51.535Z,21.00
2023-04-28T08:04:51.539Z,22.00
2023-04-28T08:05:51.417Z,23.00
2023-04-28T08:06:51.256Z,18.00
2023-04-28T08:07:51.258Z,16.00
2023-04-28T08:08:51.222Z,15.00
2023-04-28T08:09:53.223Z,15.00
2023-04-28T08:10:51.214Z,20.00
2023-04-28T08:11:51.173Z,20.00
2023-04-28T08:12:51.192Z,23.00
2023-04-28T08:13:51.162Z,28.00
2023-04-28T08:14:51.153Z,22.00
2023-04-28T08:15:51.171Z,21.00
2023-04-28T08:16:51.131Z,18.00
2023-04-28T08:17:51.143Z,15.00
2023-04-28T08:18:51.160Z,18.00
2023-04-28T08:19:51.087Z,23.00
2023-04-28T08:20:51.081Z,32.00
2023-04-28T08:21:51.077Z,28.00
2023-04-28T08:22:51.085Z,23.00
2023-04-28T08:23:51.056Z,20.00
2023-04-28T08:24:51.040Z,22.00
2023-04-28T08:25:51.035Z,23.00
2023-04-28T08:26:51.022Z,24.00
2023-04-28T08:27:51.014Z,28.00
2023-04-28T08:28:51.004Z,29.00
2023-04-28T08:29:50.980Z,26.00
2023-04-28T08:30:50.974Z,28.00
2023-04-28T08:31:51.010Z,26.00
2023-04-28T08:32:51.013Z,29.00
2023-04-28T08:33:50.945Z,28.00
2023-04-28T08:34:50.935Z,22.00
2023-04-28T08:35:50.923Z,23.00
2023-04-28T08:36:50.923Z,26.00
2023-04-28T08:37:50.912Z,27.00
2023-04-28T08:38:50.899Z,21.00
2023-04-28T08:39:50.874Z,23.00
2023-04-28T08:40:50.879Z,21.00
2023-04-28T08:41:50.918Z,21.00
2023-04-28T08:42:50.865Z,20.00
2023-04-28T08:43:50.870Z,21.00
2023-04-28T08:44:50.848Z,20.00
2023-04-28T08:45:50.826Z,22.00
2023-04-28T08:46:50.858Z,19.00
2023-04-28T08:47:50.875Z,15.00
2023-04-28T08:48:50.785Z,25.00
2023-04-28T08:49:50.774Z,22.00
2023-04-28T08:50:50.772Z,25.00
2023-04-28T08:51:50.757Z,24.00
2023-04-28T08:52:50.764Z,21.00
2023-04-28T08:54:29.400Z,21.00
2023-04-28T08:54:51.751Z,19.00
2023-04-28T08:55:50.715Z,17.00
2023-04-28T08:56:50.704Z,18.00
2023-04-28T08:57:50.699Z,18.00
2023-04-28T08:58:50.685Z,17.00
2023-04-28T08:59:50.662Z,15.00
2023-04-28T09:00:50.669Z,16.00
2023-04-28T09:01:50.699Z,15.00
2023-04-28T09:02:50.775Z,13.00
2023-04-28T09:03:50.744Z,14.00
2023-04-28T09:04:50.945Z,20.00
2023-04-28T09:05:50.605Z,21.00
2023-04-28T09:06:50.636Z,21.00
2023-04-28T09:07:50.599Z,19.00
2023-04-28T09:08:50.573Z,17.00
2023-04-28T09:09:50.575Z,13.00
2023-04-28T09:10:50.552Z,15.00
2023-04-28T09:11:50.543Z,24.00
2023-04-28T09:12:50.534Z,31.00
2023-04-28T09:13:50.519Z,31.00
2023-04-28T09:14:50.500Z,28.00
2023-04-28T09:15:50.498Z,30.00
2023-04-28T09:16:50.561Z,26.00
2023-04-28T09:17:50.537Z,22.00
2023-04-28T09:18:50.463Z,25.00
2023-04-28T09:19:50.458Z,25.00
2023-04-28T09:20:50.450Z,26.00
2023-04-28T09:21:50.505Z,22.00
2023-04-28T09:22:50.530Z,18.00
2023-04-28T09:23:50.415Z,17.00
2023-04-28T09:24:50.420Z,18.00
2023-04-28T09:25:50.403Z,17.00
2023-04-28T09:26:50.379Z,19.00
2023-04-28T09:27:50.400Z,26.00
2023-04-28T09:28:50.364Z,20.00
2023-04-28T09:29:50.359Z,21.00
2023-04-28T09:30:50.350Z,19.00
2023-04-28T09:31:50.372Z,21.00
2023-04-28T09:32:50.405Z,20.00
2023-04-28T09:33:50.321Z,20.00
2023-04-28T09:34:50.295Z,21.00
2023-04-28T09:35:50.309Z,20.00
2023-04-28T09:36:50.283Z,18.00
2023-04-28T09:37:50.308Z,19.00
2023-04-28T09:38:50.271Z,19.00
2023-04-28T09:39:50.257Z,21.00
2023-04-28T09:40:50.281Z,24.00
2023-04-28T09:41:50.263Z,20.00
2023-04-28T09:42:50.278Z,20.00
2023-04-28T09:43:50.223Z,23.00
2023-04-28T09:44:50.187Z,22.00
2023-04-28T09:45:50.198Z,17.00
2023-04-28T09:46:50.173Z,16.00
2023-04-28T09:47:50.206Z,16.00
2023-04-28T09:48:50.156Z,13.00
2023-04-28T09:49:50.147Z,15.00
2023-04-28T09:50:50.140Z,15.00
2023-04-28T09:51:50.132Z,15.00
2023-04-28T09:52:50.119Z,15.00
2023-04-28T09:53:50.106Z,20.00
2023-04-28T09:54:50.108Z,15.00
2023-04-28T09:55:50.086Z,15.00
2023-04-28T09:56:50.067Z,15.00
2023-04-28T09:57:50.372Z,18.00
2023-04-28T09:58:50.050Z,18.00
2023-04-28T09:59:50.056Z,16.00
2023-04-28T10:00:50.119Z,16.00
2023-04-28T10:01:50.088Z,19.00
2023-04-28T10:02:50.157Z,26.00
2023-04-28T10:03:50.186Z,26.00
2023-04-28T10:04:50.108Z,20.00
2023-04-28T10:05:50.017Z,18.00
2023-04-28T10:06:49.986Z,19.00
2023-04-28T10:07:49.995Z,26.00
2023-04-28T10:08:49.975Z,22.00
2023-04-28T10:09:49.954Z,19.00
2023-04-28T10:10:49.949Z,18.00
2023-04-28T10:11:49.954Z,19.00
2023-04-28T10:12:49.932Z,18.00
2023-04-28T10:13:49.913Z,18.00
2023-04-28T10:14:49.905Z,18.00
2023-04-28T10:15:49.925Z,20.00
2023-04-28T10:16:49.873Z,20.00
2023-04-28T10:17:49.921Z,22.00
2023-04-28T10:18:49.860Z,21.00
2023-04-28T10:19:49.939Z,20.00
2023-04-28T10:20:49.831Z,28.00
2023-04-28T10:21:49.840Z,30.00
2023-04-28T10:22:49.851Z,25.00
2023-04-28T10:23:49.805Z,35.00
2023-04-28T10:24:49.802Z,39.00
2023-04-28T10:25:49.786Z,32.00
2023-04-28T10:26:49.777Z,35.00
2023-04-28T10:27:49.788Z,36.00
2023-04-28T10:28:49.783Z,40.00
2023-04-28T10:29:49.742Z,34.00
2023-04-28T10:30:49.727Z,38.00
2023-04-28T10:31:50.005Z,35.00
2023-04-28T10:32:49.770Z,28.00
2023-04-28T10:33:49.766Z,22.00
2023-04-28T10:34:49.692Z,24.00
2023-04-28T10:35:49.694Z,20.00
2023-04-28T10:36:49.674Z,18.00
2023-04-28T10:37:49.661Z,21.00
2023-04-28T10:38:49.666Z,21.00
2023-04-28T10:39:49.640Z,21.00
2023-04-28T10:40:49.626Z,19.00
2023-04-28T10:41:49.612Z,21.00
2023-04-28T10:42:49.621Z,21.00
2023-04-28T10:43:49.620Z,19.00
2023-04-28T10:44:49.588Z,23.00
2023-04-28T10:45:50.357Z,22.00
2023-04-28T10:46:49.672Z,25.00
2023-04-28T10:47:49.589Z,29.00
2023-04-28T10:48:49.549Z,24.00
2023-04-28T10:49:49.532Z,24.00
2023-04-28T10:50:50.654Z,26.00
2023-04-28T10:51:49.503Z,30.00
2023-04-28T10:52:49.507Z,41.00
2023-04-28T10:53:49.514Z,40.00
2023-04-28T10:54:49.473Z,35.00
2023-04-28T10:55:49.468Z,37.00
2023-04-28T10:56:49.467Z,46.00
2023-04-28T10:57:49.464Z,36.00
2023-04-28T10:58:49.432Z,27.00
2023-04-28T10:59:49.421Z,26.00
2023-04-28T11:00:49.419Z,23.00
2023-04-28T11:01:49.458Z,26.00
2023-04-28T11:02:49.565Z,30.00
2023-04-28T11:03:49.596Z,29.00
2023-04-28T11:04:49.540Z,23.00
2023-04-28T11:05:49.364Z,29.00
2023-04-28T11:06:49.348Z,49.00
2023-04-28T11:07:49.346Z,53.00
2023-04-28T11:08:49.346Z,50.00
2023-04-28T11:09:49.314Z,27.00
2023-04-28T11:10:49.305Z,16.00
2023-04-28T11:11:49.297Z,24.00
2023-04-28T11:12:49.278Z,30.00
2023-04-28T11:13:49.302Z,24.00
2023-04-28T11:14:49.262Z,25.00
2023-04-28T11:15:49.254Z,35.00
2023-04-28T11:16:49.308Z,32.00
2023-04-28T11:17:49.260Z,17.00
2023-04-28T11:18:49.232Z,25.00
2023-04-28T11:19:49.207Z,43.00
2023-04-28T11:20:49.190Z,48.00
2023-04-28T11:21:49.262Z,41.00
2023-04-28T11:22:49.169Z,60.00
2023-04-28T11:23:49.179Z,63.00
2023-04-28T11:24:49.163Z,52.00
2023-04-28T11:25:49.150Z,29.00
2023-04-28T11:26:49.140Z,17.00
2023-04-28T11:27:49.141Z,17.00
2023-04-28T11:28:49.147Z,31.00
2023-04-28T11:29:49.112Z,45.00
2023-04-28T11:30:49.095Z,43.00
2023-04-28T11:31:49.113Z,47.00
2023-04-28T11:32:49.089Z,30.00
2023-04-28T11:33:49.070Z,31.00
2023-04-28T11:34:49.050Z,29.00
2023-04-28T11:35:49.044Z,31.00
2023-04-28T11:36:49.026Z,19.00
2023-04-28T11:37:49.016Z,25.00
2023-04-28T11:38:49.041Z,30.00
2023-04-28T11:39:48.997Z,24.00
2023-04-28T11:40:48.992Z,57.00
2023-04-28T11:41:48.974Z,34.00
2023-04-28T11:42:48.962Z,29.00
2023-04-28T11:43:48.974Z,43.00
2023-04-28T11:44:48.944Z,32.00
2023-04-28T11:45:48.950Z,51.00
2023-04-28T11:46:48.949Z,34.00
2023-04-28T11:47:48.986Z,26.00
2023-04-28T11:48:48.931Z,19.00
2023-04-28T11:49:48.886Z,15.00
2023-04-28T11:50:48.876Z,25.00
2023-04-28T11:51:48.873Z,41.00
2023-04-28T11:52:50.785Z,37.00
2023-04-28T11:53:49.081Z,23.00
2023-04-28T11:54:48.841Z,18.00
2023-04-28T11:55:48.835Z,17.00
2023-04-28T11:56:48.849Z,18.00
2023-04-28T11:57:48.807Z,25.00
2023-04-28T11:58:48.812Z,21.00
2023-04-28T11:59:49.434Z,23.00
2023-04-28T12:00:48.775Z,30.00
2023-04-28T12:01:48.770Z,28.00
2023-04-28T12:02:48.928Z,29.00
2023-04-28T12:03:48.888Z,33.00
2023-04-28T12:04:48.733Z,31.00
2023-04-28T12:05:48.779Z,21.00
2023-04-28T12:06:48.712Z,26.00
2023-04-28T12:07:48.715Z,37.00
2023-04-28T12:08:48.711Z,30.00
2023-04-28T12:09:48.694Z,29.00
2023-04-28T12:10:48.668Z,22.00
2023-04-28T12:11:48.664Z,29.00
2023-04-28T12:12:52.834Z,36.00
2023-04-28T12:13:48.659Z,37.00
2023-04-28T12:14:48.625Z,39.00
2023-04-28T12:15:48.676Z,33.00
2023-04-28T12:16:48.614Z,31.00
2023-04-28T12:17:48.856Z,30.00
2023-04-28T12:18:48.601Z,22.00
2023-04-28T12:19:48.579Z,30.00
2023-04-28T12:20:48.568Z,23.00
2023-04-28T12:21:48.572Z,19.00
2023-04-28T12:22:48.547Z,17.00
2023-04-28T12:23:48.560Z,23.00
2023-04-28T12:24:48.522Z,19.00
2023-04-28T12:25:48.531Z,27.00
2023-04-28T12:26:48.506Z,23.00
2023-04-28T12:27:48.489Z,22.00
2023-04-28T12:28:48.501Z,14.00
2023-04-28T12:29:48.479Z,12.00
2023-04-28T12:30:48.461Z,17.00
2023-04-28T12:31:48.510Z,32.00
2023-04-28T12:32:48.497Z,41.00
2023-04-28T12:33:48.455Z,53.00
2023-04-28T12:34:48.414Z,41.00
2023-04-28T12:35:48.414Z,26.00
2023-04-28T12:36:48.397Z,19.00
2023-04-28T12:37:48.400Z,22.00
2023-04-28T12:38:48.390Z,17.00
2023-04-28T12:39:48.383Z,13.00
2023-04-28T12:40:48.355Z,15.00
2023-04-28T12:41:48.360Z,22.00
2023-04-28T12:42:48.337Z,28.00
2023-04-28T12:43:48.375Z,33.00
2023-04-28T12:44:48.310Z,25.00
2023-04-28T12:45:48.372Z,14.00
2023-04-28T12:46:48.290Z,10.00
2023-04-28T12:47:48.560Z,17.00
2023-04-28T12:48:48.294Z,27.00
2023-04-28T12:49:48.273Z,18.00
2023-04-28T12:50:48.250Z,15.00
2023-04-28T12:51:48.246Z,15.00
2023-04-28T12:52:48.240Z,9.00
2023-04-28T12:53:48.232Z,12.00
2023-04-28T12:54:48.219Z,31.00
2023-04-28T12:55:48.225Z,19.00
2023-04-28T12:56:48.189Z,16.00
2023-04-28T12:57:48.186Z,25.00
2023-04-28T12:58:48.187Z,20.00
2023-04-28T12:59:48.165Z,19.00
2023-04-28T13:00:48.163Z,33.00
2023-04-28T13:01:48.213Z,17.00
2023-04-28T13:02:48.242Z,26.00
2023-04-28T13:03:48.285Z,33.00
2023-04-28T13:04:48.274Z,33.00
2023-04-28T13:05:48.105Z,23.00
2023-04-28T13:06:48.085Z,25.00